sensor_id;sensor_type;location;lat;lon;timestamp;temperature;humidity
46754;DHT22;32500;50.620;3.400;2023-09-08T00:02:12;21.70;90.20
46754;DHT22;32500;50.620;3.400;2023-09-08T00:04:38;21.70;90.20
46754;DHT22;32500;50.620;3.400;2023-09-08T00:07:04;21.70;90.20
46754;DHT22;32500;50.620;3.400;2023-09-08T00:09:29;21.70;90.10
46754;DHT22;32500;50.620;3.400;2023-09-08T00:11:55;21.70;90.00
46754;DHT22;32500;50.620;3.400;2023-09-08T00:14:21;21.70;90.10
46754;DHT22;32500;50.620;3.400;2023-09-08T00:16:47;21.60;90.60
46754;DHT22;32500;50.620;3.400;2023-09-08T00:19:13;21.70;90.40
46754;DHT22;32500;50.620;3.400;2023-09-08T00:21:39;21.60;90.40
46754;DHT22;32500;50.620;3.400;2023-09-08T00:24:05;21.60;90.10
46754;DHT22;32500;50.620;3.400;2023-09-08T00:26:31;21.60;90.50
46754;DHT22;32500;50.620;3.400;2023-09-08T00:28:57;21.60;90.50
46754;DHT22;32500;50.620;3.400;2023-09-08T00:31:23;21.60;90.60
46754;DHT22;32500;50.620;3.400;2023-09-08T00:33:48;21.50;90.00
46754;DHT22;32500;50.620;3.400;2023-09-08T00:36:14;21.50;90.20
46754;DHT22;32500;50.620;3.400;2023-09-08T00:38:40;21.50;90.30
46754;DHT22;32500;50.620;3.400;2023-09-08T00:41:06;21.50;91.20
46754;DHT22;32500;50.620;3.400;2023-09-08T00:43:33;21.50;90.20
46754;DHT22;32500;50.620;3.400;2023-09-08T00:45:59;21.50;90.50
46754;DHT22;32500;50.620;3.400;2023-09-08T00:48:28;21.50;90.90
46754;DHT22;32500;50.620;3.400;2023-09-08T00:50:54;21.40;90.90
46754;DHT22;32500;50.620;3.400;2023-09-08T00:53:21;21.40;90.70
46754;DHT22;32500;50.620;3.400;2023-09-08T00:55:47;21.40;91.00
46754;DHT22;32500;50.620;3.400;2023-09-08T00:58:13;21.40;90.90
46754;DHT22;32500;50.620;3.400;2023-09-08T01:00:39;21.40;90.50
46754;DHT22;32500;50.620;3.400;2023-09-08T01:03:05;21.30;90.70
46754;DHT22;32500;50.620;3.400;2023-09-08T01:05:31;21.30;90.70
46754;DHT22;32500;50.620;3.400;2023-09-08T01:07:59;21.30;91.00
46754;DHT22;32500;50.620;3.400;2023-09-08T01:10:25;21.30;90.90
46754;DHT22;32500;50.620;3.400;2023-09-08T01:12:50;21.30;90.40
46754;DHT22;32500;50.620;3.400;2023-09-08T01:15:16;21.30;90.70
46754;DHT22;32500;50.620;3.400;2023-09-08T01:17:41;21.30;91.10
46754;DHT22;32500;50.620;3.400;2023-09-08T01:20:57;21.30;91.00
46754;DHT22;32500;50.620;3.400;2023-09-08T01:23:28;21.30;90.80
46754;DHT22;32500;50.620;3.400;2023-09-08T01:26:08;21.20;90.80
46754;DHT22;32500;50.620;3.400;2023-09-08T01:28:35;21.30;91.10
46754;DHT22;32500;50.620;3.400;2023-09-08T01:31:01;21.20;91.10
46754;DHT22;32500;50.620;3.400;2023-09-08T01:33:27;21.20;91.20
46754;DHT22;32500;50.620;3.400;2023-09-08T01:35:53;21.20;90.80
46754;DHT22;32500;50.620;3.400;2023-09-08T01:38:21;21.20;91.10
46754;DHT22;32500;50.620;3.400;2023-09-08T01:40:47;21.10;91.20
46754;DHT22;32500;50.620;3.400;2023-09-08T01:43:13;21.20;91.10
46754;DHT22;32500;50.620;3.400;2023-09-08T01:45:38;21.20;91.00
46754;DHT22;32500;50.620;3.400;2023-09-08T01:48:04;21.20;91.30
46754;DHT22;32500;50.620;3.400;2023-09-08T01:50:30;21.10;90.90
46754;DHT22;32500;50.620;3.400;2023-09-08T01:52:55;21.10;90.80
46754;DHT22;32500;50.620;3.400;2023-09-08T01:55:21;21.10;90.80
46754;DHT22;32500;50.620;3.400;2023-09-08T01:57:47;21.10;91.60
46754;DHT22;32500;50.620;3.400;2023-09-08T02:00:13;21.10;91.60
46754;DHT22;32500;50.620;3.400;2023-09-08T02:02:39;21.10;91.60
46754;DHT22;32500;50.620;3.400;2023-09-08T02:05:05;21.10;92.20
46754;DHT22;32500;50.620;3.400;2023-09-08T02:07:31;21.10;91.80
46754;DHT22;32500;50.620;3.400;2023-09-08T02:09:56;21.00;91.40
46754;DHT22;32500;50.620;3.400;2023-09-08T02:12:22;21.00;91.10
46754;DHT22;32500;50.620;3.400;2023-09-08T02:14:48;21.00;91.20
46754;DHT22;32500;50.620;3.400;2023-09-08T02:17:13;21.00;90.90
46754;DHT22;32500;50.620;3.400;2023-09-08T02:19:39;21.00;91.50
46754;DHT22;32500;50.620;3.400;2023-09-08T02:22:05;21.00;91.30
46754;DHT22;32500;50.620;3.400;2023-09-08T02:24:30;20.90;91.50
46754;DHT22;32500;50.620;3.400;2023-09-08T02:26:56;20.90;91.40
46754;DHT22;32500;50.620;3.400;2023-09-08T02:29:22;20.90;91.40
46754;DHT22;32500;50.620;3.400;2023-09-08T02:31:48;20.90;91.40
46754;DHT22;32500;50.620;3.400;2023-09-08T02:34:14;20.90;91.90
46754;DHT22;32500;50.620;3.400;2023-09-08T02:36:39;20.90;91.40
46754;DHT22;32500;50.620;3.400;2023-09-08T02:39:05;20.90;91.20
46754;DHT22;32500;50.620;3.400;2023-09-08T02:41:31;20.80;91.10
46754;DHT22;32500;50.620;3.400;2023-09-08T02:43:56;20.80;91.90
46754;DHT22;32500;50.620;3.400;2023-09-08T02:46:22;20.80;91.50
46754;DHT22;32500;50.620;3.400;2023-09-08T02:48:48;20.80;91.70
46754;DHT22;32500;50.620;3.400;2023-09-08T02:51:13;20.80;91.60
46754;DHT22;32500;50.620;3.400;2023-09-08T02:53:39;20.80;91.30
46754;DHT22;32500;50.620;3.400;2023-09-08T02:56:05;20.80;91.30
46754;DHT22;32500;50.620;3.400;2023-09-08T02:58:34;20.70;91.40
46754;DHT22;32500;50.620;3.400;2023-09-08T03:01:14;20.70;91.70
46754;DHT22;32500;50.620;3.400;2023-09-08T03:03:43;20.70;91.40
46754;DHT22;32500;50.620;3.400;2023-09-08T03:06:09;20.70;91.90
46754;DHT22;32500;50.620;3.400;2023-09-08T03:08:35;20.70;91.90
46754;DHT22;32500;50.620;3.400;2023-09-08T03:11:03;20.70;91.90
46754;DHT22;32500;50.620;3.400;2023-09-08T03:13:28;20.60;91.70
46754;DHT22;32500;50.620;3.400;2023-09-08T03:15:55;20.70;91.60
46754;DHT22;32500;50.620;3.400;2023-09-08T03:18:21;20.60;91.80
46754;DHT22;32500;50.620;3.400;2023-09-08T03:20:50;20.60;92.10
46754;DHT22;32500;50.620;3.400;2023-09-08T03:23:16;20.60;92.20
46754;DHT22;32500;50.620;3.400;2023-09-08T03:25:42;20.60;92.10
46754;DHT22;32500;50.620;3.400;2023-09-08T03:28:08;20.60;92.00
46754;DHT22;32500;50.620;3.400;2023-09-08T03:30:34;20.60;91.70
46754;DHT22;32500;50.620;3.400;2023-09-08T03:32:59;20.60;92.10
46754;DHT22;32500;50.620;3.400;2023-09-08T03:35:25;20.60;91.70
46754;DHT22;32500;50.620;3.400;2023-09-08T03:37:50;20.60;91.50
46754;DHT22;32500;50.620;3.400;2023-09-08T03:40:16;20.50;91.90
46754;DHT22;32500;50.620;3.400;2023-09-08T03:42:42;20.60;92.00
46754;DHT22;32500;50.620;3.400;2023-09-08T03:45:08;20.50;91.90
46754;DHT22;32500;50.620;3.400;2023-09-08T03:47:34;20.50;91.90
46754;DHT22;32500;50.620;3.400;2023-09-08T03:50:00;20.50;91.60
46754;DHT22;32500;50.620;3.400;2023-09-08T03:52:25;20.50;91.90
46754;DHT22;32500;50.620;3.400;2023-09-08T03:54:51;20.50;91.80
46754;DHT22;32500;50.620;3.400;2023-09-08T03:57:17;20.50;91.90
46754;DHT22;32500;50.620;3.400;2023-09-08T03:59:43;20.40;92.00
46754;DHT22;32500;50.620;3.400;2023-09-08T04:02:08;20.40;91.70
46754;DHT22;32500;50.620;3.400;2023-09-08T04:04:34;20.40;91.90
46754;DHT22;32500;50.620;3.400;2023-09-08T04:06:59;20.40;92.00
46754;DHT22;32500;50.620;3.400;2023-09-08T04:09:25;20.40;92.20
46754;DHT22;32500;50.620;3.400;2023-09-08T04:11:51;20.40;92.10
46754;DHT22;32500;50.620;3.400;2023-09-08T04:14:16;20.40;92.10
46754;DHT22;32500;50.620;3.400;2023-09-08T04:16:42;20.40;92.20
46754;DHT22;32500;50.620;3.400;2023-09-08T04:19:08;20.40;92.00
46754;DHT22;32500;50.620;3.400;2023-09-08T04:21:33;20.30;92.20
46754;DHT22;32500;50.620;3.400;2023-09-08T04:23:59;20.30;92.30
46754;DHT22;32500;50.620;3.400;2023-09-08T04:26:25;20.30;92.70
46754;DHT22;32500;50.620;3.400;2023-09-08T04:28:50;20.30;92.40
46754;DHT22;32500;50.620;3.400;2023-09-08T04:31:16;20.30;92.20
46754;DHT22;32500;50.620;3.400;2023-09-08T04:33:43;20.30;92.20
46754;DHT22;32500;50.620;3.400;2023-09-08T04:36:09;20.30;92.40
46754;DHT22;32500;50.620;3.400;2023-09-08T04:38:36;20.30;92.60
46754;DHT22;32500;50.620;3.400;2023-09-08T04:41:02;20.30;92.80
46754;DHT22;32500;50.620;3.400;2023-09-08T04:43:27;20.30;92.40
46754;DHT22;32500;50.620;3.400;2023-09-08T04:45:53;20.20;92.40
46754;DHT22;32500;50.620;3.400;2023-09-08T04:48:18;20.30;93.40
46754;DHT22;32500;50.620;3.400;2023-09-08T04:50:44;20.30;93.30
46754;DHT22;32500;50.620;3.400;2023-09-08T04:53:09;20.30;93.40
46754;DHT22;32500;50.620;3.400;2023-09-08T04:55:35;20.30;93.40
46754;DHT22;32500;50.620;3.400;2023-09-08T04:58:01;20.30;93.30
46754;DHT22;32500;50.620;3.400;2023-09-08T05:00:26;20.20;93.40
46754;DHT22;32500;50.620;3.400;2023-09-08T05:02:52;20.20;93.10
46754;DHT22;32500;50.620;3.400;2023-09-08T05:05:17;20.20;93.30
46754;DHT22;32500;50.620;3.400;2023-09-08T05:07:43;20.20;93.90
46754;DHT22;32500;50.620;3.400;2023-09-08T05:10:09;20.20;93.60
46754;DHT22;32500;50.620;3.400;2023-09-08T05:12:37;20.20;92.90
46754;DHT22;32500;50.620;3.400;2023-09-08T05:15:04;20.10;92.70
46754;DHT22;32500;50.620;3.400;2023-09-08T05:17:35;20.10;93.50
46754;DHT22;32500;50.620;3.400;2023-09-08T05:20:02;20.20;95.90
46754;DHT22;32500;50.620;3.400;2023-09-08T05:22:28;20.20;96.00
46754;DHT22;32500;50.620;3.400;2023-09-08T05:24:53;20.30;95.90
46754;DHT22;32500;50.620;3.400;2023-09-08T05:27:19;20.30;96.10
46754;DHT22;32500;50.620;3.400;2023-09-08T05:29:44;20.30;96.00
46754;DHT22;32500;50.620;3.400;2023-09-08T05:32:10;20.30;95.90
46754;DHT22;32500;50.620;3.400;2023-09-08T05:34:36;20.30;96.20
46754;DHT22;32500;50.620;3.400;2023-09-08T05:37:02;20.30;96.50
46754;DHT22;32500;50.620;3.400;2023-09-08T05:39:27;20.30;96.50
46754;DHT22;32500;50.620;3.400;2023-09-08T05:41:53;20.20;96.30
46754;DHT22;32500;50.620;3.400;2023-09-08T05:44:19;20.30;96.50
46754;DHT22;32500;50.620;3.400;2023-09-08T05:46:45;20.30;96.30
46754;DHT22;32500;50.620;3.400;2023-09-08T05:49:10;20.30;96.40
46754;DHT22;32500;50.620;3.400;2023-09-08T05:51:36;20.20;93.00
46754;DHT22;32500;50.620;3.400;2023-09-08T05:54:02;20.10;92.70
46754;DHT22;32500;50.620;3.400;2023-09-08T05:56:33;20.10;92.70
46754;DHT22;32500;50.620;3.400;2023-09-08T05:58:58;20.10;93.10
46754;DHT22;32500;50.620;3.400;2023-09-08T06:01:24;20.10;92.70
46754;DHT22;32500;50.620;3.400;2023-09-08T06:03:50;20.10;92.60
46754;DHT22;32500;50.620;3.400;2023-09-08T06:06:15;20.10;92.80
46754;DHT22;32500;50.620;3.400;2023-09-08T06:08:41;20.10;93.00
46754;DHT22;32500;50.620;3.400;2023-09-08T06:11:07;20.10;93.20
46754;DHT22;32500;50.620;3.400;2023-09-08T06:13:33;20.10;92.90
46754;DHT22;32500;50.620;3.400;2023-09-08T06:15:58;20.10;93.20
46754;DHT22;32500;50.620;3.400;2023-09-08T06:18:25;20.10;93.20
46754;DHT22;32500;50.620;3.400;2023-09-08T06:20:52;20.20;93.00
46754;DHT22;32500;50.620;3.400;2023-09-08T06:23:20;20.10;93.60
46754;DHT22;32500;50.620;3.400;2023-09-08T06:25:45;20.20;93.30
46754;DHT22;32500;50.620;3.400;2023-09-08T06:28:11;20.20;93.30
46754;DHT22;32500;50.620;3.400;2023-09-08T06:30:36;20.20;93.10
46754;DHT22;32500;50.620;3.400;2023-09-08T06:33:02;20.30;93.60
46754;DHT22;32500;50.620;3.400;2023-09-08T06:35:30;20.30;93.60
46754;DHT22;32500;50.620;3.400;2023-09-08T06:37:56;20.30;93.40
46754;DHT22;32500;50.620;3.400;2023-09-08T06:40:23;20.30;92.70
46754;DHT22;32500;50.620;3.400;2023-09-08T06:42:48;20.30;93.60
46754;DHT22;32500;50.620;3.400;2023-09-08T06:45:14;20.30;93.20
46754;DHT22;32500;50.620;3.400;2023-09-08T06:47:40;20.40;92.70
46754;DHT22;32500;50.620;3.400;2023-09-08T06:50:06;20.40;93.10
46754;DHT22;32500;50.620;3.400;2023-09-08T06:52:32;20.40;92.90
46754;DHT22;32500;50.620;3.400;2023-09-08T06:54:57;20.50;93.70
46754;DHT22;32500;50.620;3.400;2023-09-08T06:57:23;20.50;92.30
46754;DHT22;32500;50.620;3.400;2023-09-08T06:59:49;20.50;93.50
46754;DHT22;32500;50.620;3.400;2023-09-08T07:02:14;20.60;93.00
46754;DHT22;32500;50.620;3.400;2023-09-08T07:04:40;20.60;93.10
46754;DHT22;32500;50.620;3.400;2023-09-08T07:07:06;20.60;93.70
46754;DHT22;32500;50.620;3.400;2023-09-08T07:09:36;20.70;93.90
46754;DHT22;32500;50.620;3.400;2023-09-08T07:12:05;20.80;94.50
46754;DHT22;32500;50.620;3.400;2023-09-08T07:14:32;20.70;93.20
46754;DHT22;32500;50.620;3.400;2023-09-08T07:16:58;20.70;92.30
46754;DHT22;32500;50.620;3.400;2023-09-08T07:19:23;20.80;93.60
46754;DHT22;32500;50.620;3.400;2023-09-08T07:21:49;20.80;93.00
46754;DHT22;32500;50.620;3.400;2023-09-08T07:24:14;20.80;91.90
46754;DHT22;32500;50.620;3.400;2023-09-08T07:26:40;20.90;91.50
46754;DHT22;32500;50.620;3.400;2023-09-08T07:29:06;20.90;91.30
46754;DHT22;32500;50.620;3.400;2023-09-08T07:31:31;20.90;92.40
46754;DHT22;32500;50.620;3.400;2023-09-08T07:33:57;21.00;91.50
46754;DHT22;32500;50.620;3.400;2023-09-08T07:36:23;21.10;93.10
46754;DHT22;32500;50.620;3.400;2023-09-08T07:38:48;21.10;92.10
46754;DHT22;32500;50.620;3.400;2023-09-08T07:41:14;21.10;91.50
46754;DHT22;32500;50.620;3.400;2023-09-08T07:43:40;21.10;92.40
46754;DHT22;32500;50.620;3.400;2023-09-08T07:46:06;21.20;91.30
46754;DHT22;32500;50.620;3.400;2023-09-08T07:48:32;21.20;91.70
46754;DHT22;32500;50.620;3.400;2023-09-08T07:50:58;21.30;91.30
46754;DHT22;32500;50.620;3.400;2023-09-08T07:53:26;21.30;91.20
46754;DHT22;32500;50.620;3.400;2023-09-08T07:55:52;21.30;91.40
46754;DHT22;32500;50.620;3.400;2023-09-08T07:58:17;21.40;92.20
46754;DHT22;32500;50.620;3.400;2023-09-08T08:00:43;21.40;91.90
46754;DHT22;32500;50.620;3.400;2023-09-08T08:03:09;21.50;92.20
46754;DHT22;32500;50.620;3.400;2023-09-08T08:05:34;21.50;91.00
46754;DHT22;32500;50.620;3.400;2023-09-08T08:08:00;21.50;91.20
46754;DHT22;32500;50.620;3.400;2023-09-08T08:10:26;21.50;91.10
46754;DHT22;32500;50.620;3.400;2023-09-08T08:12:52;21.50;90.50
46754;DHT22;32500;50.620;3.400;2023-09-08T08:15:19;21.60;91.40
46754;DHT22;32500;50.620;3.400;2023-09-08T08:17:46;21.70;91.10
46754;DHT22;32500;50.620;3.400;2023-09-08T08:20:12;21.70;91.40
46754;DHT22;32500;50.620;3.400;2023-09-08T08:22:43;21.80;91.90
46754;DHT22;32500;50.620;3.400;2023-09-08T08:25:10;21.80;91.60
46754;DHT22;32500;50.620;3.400;2023-09-08T08:27:36;21.80;90.00
46754;DHT22;32500;50.620;3.400;2023-09-08T08:30:02;21.90;92.20
46754;DHT22;32500;50.620;3.400;2023-09-08T08:32:29;21.90;90.10
46754;DHT22;32500;50.620;3.400;2023-09-08T08:34:54;21.90;91.50
46754;DHT22;32500;50.620;3.400;2023-09-08T08:37:20;22.00;92.00
46754;DHT22;32500;50.620;3.400;2023-09-08T08:39:46;22.10;93.60
46754;DHT22;32500;50.620;3.400;2023-09-08T08:42:12;22.10;91.60
46754;DHT22;32500;50.620;3.400;2023-09-08T08:44:38;22.20;93.90
46754;DHT22;32500;50.620;3.400;2023-09-08T08:47:07;22.30;94.60
46754;DHT22;32500;50.620;3.400;2023-09-08T08:49:33;22.30;92.20
46754;DHT22;32500;50.620;3.400;2023-09-08T08:51:59;22.30;93.40
46754;DHT22;32500;50.620;3.400;2023-09-08T08:54:29;22.40;93.10
46754;DHT22;32500;50.620;3.400;2023-09-08T08:56:55;22.40;92.90
46754;DHT22;32500;50.620;3.400;2023-09-08T08:59:21;22.40;93.50
46754;DHT22;32500;50.620;3.400;2023-09-08T09:01:48;22.50;93.40
46754;DHT22;32500;50.620;3.400;2023-09-08T09:04:14;22.60;92.60
46754;DHT22;32500;50.620;3.400;2023-09-08T09:06:41;22.60;91.10
46754;DHT22;32500;50.620;3.400;2023-09-08T09:09:07;22.70;92.80
46754;DHT22;32500;50.620;3.400;2023-09-08T09:11:33;22.70;93.70
46754;DHT22;32500;50.620;3.400;2023-09-08T09:13:59;22.90;93.30
46754;DHT22;32500;50.620;3.400;2023-09-08T09:16:25;22.90;92.60
46754;DHT22;32500;50.620;3.400;2023-09-08T09:18:55;22.90;92.10
46754;DHT22;32500;50.620;3.400;2023-09-08T09:21:24;22.90;90.50
46754;DHT22;32500;50.620;3.400;2023-09-08T09:24:00;23.00;92.10
46754;DHT22;32500;50.620;3.400;2023-09-08T09:26:26;23.10;92.60
46754;DHT22;32500;50.620;3.400;2023-09-08T09:28:52;23.20;94.00
46754;DHT22;32500;50.620;3.400;2023-09-08T09:31:23;23.20;93.70
46754;DHT22;32500;50.620;3.400;2023-09-08T09:34:01;23.20;93.20
46754;DHT22;32500;50.620;3.400;2023-09-08T09:36:29;23.30;91.90
46754;DHT22;32500;50.620;3.400;2023-09-08T09:38:59;23.40;92.90
46754;DHT22;32500;50.620;3.400;2023-09-08T09:41:29;23.40;92.70
46754;DHT22;32500;50.620;3.400;2023-09-08T09:43:57;23.40;91.00
46754;DHT22;32500;50.620;3.400;2023-09-08T09:46:23;23.50;92.60
46754;DHT22;32500;50.620;3.400;2023-09-08T09:48:54;23.60;92.70
46754;DHT22;32500;50.620;3.400;2023-09-08T09:51:22;23.60;92.60
46754;DHT22;32500;50.620;3.400;2023-09-08T09:53:50;23.70;93.00
46754;DHT22;32500;50.620;3.400;2023-09-08T09:56:17;23.80;92.90
46754;DHT22;32500;50.620;3.400;2023-09-08T09:58:43;23.80;93.10
46754;DHT22;32500;50.620;3.400;2023-09-08T10:01:10;23.80;92.30
46754;DHT22;32500;50.620;3.400;2023-09-08T10:03:38;23.90;91.40
46754;DHT22;32500;50.620;3.400;2023-09-08T10:06:05;23.90;92.50
46754;DHT22;32500;50.620;3.400;2023-09-08T10:08:33;24.00;92.40
46754;DHT22;32500;50.620;3.400;2023-09-08T10:11:05;24.10;91.40
46754;DHT22;32500;50.620;3.400;2023-09-08T10:13:39;24.10;91.80
46754;DHT22;32500;50.620;3.400;2023-09-08T10:16:08;24.10;88.70
46754;DHT22;32500;50.620;3.400;2023-09-08T10:18:35;24.20;91.50
46754;DHT22;32500;50.620;3.400;2023-09-08T10:21:03;24.20;91.40
46754;DHT22;32500;50.620;3.400;2023-09-08T10:23:40;24.30;91.00
46754;DHT22;32500;50.620;3.400;2023-09-08T10:26:10;24.30;91.90
46754;DHT22;32500;50.620;3.400;2023-09-08T10:28:37;24.40;92.60
46754;DHT22;32500;50.620;3.400;2023-09-08T10:31:04;24.40;92.40
46754;DHT22;32500;50.620;3.400;2023-09-08T10:33:31;24.50;92.60
46754;DHT22;32500;50.620;3.400;2023-09-08T10:35:57;24.50;89.40
46754;DHT22;32500;50.620;3.400;2023-09-08T10:38:29;24.60;91.10
46754;DHT22;32500;50.620;3.400;2023-09-08T10:43:46;24.60;91.50
46754;DHT22;32500;50.620;3.400;2023-09-08T10:46:24;24.70;89.60
46754;DHT22;32500;50.620;3.400;2023-09-08T10:48:53;24.70;92.10
46754;DHT22;32500;50.620;3.400;2023-09-08T10:51:20;24.70;91.10
46754;DHT22;32500;50.620;3.400;2023-09-08T10:53:48;24.80;90.50
46754;DHT22;32500;50.620;3.400;2023-09-08T10:56:15;24.80;90.20
46754;DHT22;32500;50.620;3.400;2023-09-08T10:58:42;24.90;90.20
46754;DHT22;32500;50.620;3.400;2023-09-08T11:01:21;24.90;88.50
46754;DHT22;32500;50.620;3.400;2023-09-08T11:03:54;24.90;91.80
46754;DHT22;32500;50.620;3.400;2023-09-08T11:06:20;25.00;89.80
46754;DHT22;32500;50.620;3.400;2023-09-08T11:08:50;25.00;91.10
46754;DHT22;32500;50.620;3.400;2023-09-08T11:11:20;25.10;91.00
46754;DHT22;32500;50.620;3.400;2023-09-08T11:13:46;25.10;90.70
46754;DHT22;32500;50.620;3.400;2023-09-08T11:16:16;25.10;89.90
46754;DHT22;32500;50.620;3.400;2023-09-08T11:18:46;25.20;90.90
46754;DHT22;32500;50.620;3.400;2023-09-08T11:21:12;25.20;90.10
46754;DHT22;32500;50.620;3.400;2023-09-08T11:23:38;25.30;90.40
46754;DHT22;32500;50.620;3.400;2023-09-08T11:26:03;25.30;90.40
46754;DHT22;32500;50.620;3.400;2023-09-08T11:28:29;25.40;90.30
46754;DHT22;32500;50.620;3.400;2023-09-08T11:30:55;25.40;89.20
46754;DHT22;32500;50.620;3.400;2023-09-08T11:33:22;25.40;89.90
46754;DHT22;32500;50.620;3.400;2023-09-08T11:35:54;25.50;90.00
46754;DHT22;32500;50.620;3.400;2023-09-08T11:38:28;25.50;87.10
46754;DHT22;32500;50.620;3.400;2023-09-08T11:40:54;25.50;89.10
46754;DHT22;32500;50.620;3.400;2023-09-08T11:43:21;25.60;89.30
46754;DHT22;32500;50.620;3.400;2023-09-08T11:45:47;25.60;87.80
46754;DHT22;32500;50.620;3.400;2023-09-08T11:48:14;25.70;88.80
46754;DHT22;32500;50.620;3.400;2023-09-08T11:50:41;25.70;88.50
46754;DHT22;32500;50.620;3.400;2023-09-08T11:53:08;25.70;84.60
46754;DHT22;32500;50.620;3.400;2023-09-08T11:55:34;25.80;85.70
46754;DHT22;32500;50.620;3.400;2023-09-08T11:58:02;25.80;86.50
46754;DHT22;32500;50.620;3.400;2023-09-08T12:00:28;25.80;86.50
46754;DHT22;32500;50.620;3.400;2023-09-08T12:02:54;25.80;85.40
46754;DHT22;32500;50.620;3.400;2023-09-08T12:05:24;25.90;85.00
46754;DHT22;32500;50.620;3.400;2023-09-08T12:07:55;25.90;85.60
46754;DHT22;32500;50.620;3.400;2023-09-08T12:10:25;26.00;86.50
46754;DHT22;32500;50.620;3.400;2023-09-08T12:12:52;26.00;84.20
46754;DHT22;32500;50.620;3.400;2023-09-08T12:15:34;26.00;83.50
46754;DHT22;32500;50.620;3.400;2023-09-08T12:18:05;26.00;85.30
46754;DHT22;32500;50.620;3.400;2023-09-08T12:20:31;26.10;84.90
46754;DHT22;32500;50.620;3.400;2023-09-08T12:23:02;26.10;85.10
46754;DHT22;32500;50.620;3.400;2023-09-08T12:25:28;26.20;85.20
46754;DHT22;32500;50.620;3.400;2023-09-08T12:27:54;26.20;84.40
46754;DHT22;32500;50.620;3.400;2023-09-08T12:30:22;26.30;85.50
46754;DHT22;32500;50.620;3.400;2023-09-08T12:32:56;26.30;84.20
46754;DHT22;32500;50.620;3.400;2023-09-08T12:35:22;26.30;83.80
46754;DHT22;32500;50.620;3.400;2023-09-08T12:37:58;26.30;83.60
46754;DHT22;32500;50.620;3.400;2023-09-08T12:40:26;26.40;83.50
46754;DHT22;32500;50.620;3.400;2023-09-08T12:42:52;26.40;83.30
46754;DHT22;32500;50.620;3.400;2023-09-08T12:45:20;26.50;83.00
46754;DHT22;32500;50.620;3.400;2023-09-08T12:47:46;26.50;82.70
46754;DHT22;32500;50.620;3.400;2023-09-08T12:50:11;26.60;82.50
46754;DHT22;32500;50.620;3.400;2023-09-08T12:52:39;26.60;82.70
46754;DHT22;32500;50.620;3.400;2023-09-08T12:55:04;26.60;81.90
46754;DHT22;32500;50.620;3.400;2023-09-08T12:57:30;26.60;81.40
46754;DHT22;32500;50.620;3.400;2023-09-08T12:59:56;26.70;81.10
46754;DHT22;32500;50.620;3.400;2023-09-08T13:02:22;26.70;82.00
46754;DHT22;32500;50.620;3.400;2023-09-08T13:04:47;26.70;81.10
46754;DHT22;32500;50.620;3.400;2023-09-08T13:07:17;26.80;81.00
46754;DHT22;32500;50.620;3.400;2023-09-08T13:09:43;26.80;80.90
46754;DHT22;32500;50.620;3.400;2023-09-08T13:12:09;26.80;80.60
46754;DHT22;32500;50.620;3.400;2023-09-08T13:14:35;26.80;80.40
46754;DHT22;32500;50.620;3.400;2023-09-08T13:17:01;26.90;80.30
46754;DHT22;32500;50.620;3.400;2023-09-08T13:19:27;26.90;80.10
46754;DHT22;32500;50.620;3.400;2023-09-08T13:21:53;26.90;80.10
46754;DHT22;32500;50.620;3.400;2023-09-08T13:24:18;26.90;80.00
46754;DHT22;32500;50.620;3.400;2023-09-08T13:26:46;26.90;79.70
46754;DHT22;32500;50.620;3.400;2023-09-08T13:29:11;27.00;79.50
46754;DHT22;32500;50.620;3.400;2023-09-08T13:31:37;27.00;79.40
46754;DHT22;32500;50.620;3.400;2023-09-08T13:34:02;27.10;79.20
46754;DHT22;32500;50.620;3.400;2023-09-08T13:36:28;27.10;79.00
46754;DHT22;32500;50.620;3.400;2023-09-08T13:38:54;27.10;78.70
46754;DHT22;32500;50.620;3.400;2023-09-08T13:41:19;27.20;78.60
46754;DHT22;32500;50.620;3.400;2023-09-08T13:43:45;27.20;78.50
46754;DHT22;32500;50.620;3.400;2023-09-08T13:46:10;27.20;78.30
46754;DHT22;32500;50.620;3.400;2023-09-08T13:48:36;27.20;78.00
46754;DHT22;32500;50.620;3.400;2023-09-08T13:51:05;27.30;77.90
46754;DHT22;32500;50.620;3.400;2023-09-08T13:53:30;27.30;77.70
46754;DHT22;32500;50.620;3.400;2023-09-08T13:55:57;27.30;77.50
46754;DHT22;32500;50.620;3.400;2023-09-08T13:58:22;27.30;77.30
46754;DHT22;32500;50.620;3.400;2023-09-08T14:00:48;27.40;77.40
46754;DHT22;32500;50.620;3.400;2023-09-08T14:03:17;27.40;77.20
46754;DHT22;32500;50.620;3.400;2023-09-08T14:05:44;27.40;77.00
46754;DHT22;32500;50.620;3.400;2023-09-08T14:08:09;27.40;76.90
46754;DHT22;32500;50.620;3.400;2023-09-08T14:10:35;27.50;76.70
46754;DHT22;32500;50.620;3.400;2023-09-08T14:13:01;27.50;77.20
46754;DHT22;32500;50.620;3.400;2023-09-08T14:15:27;27.50;76.30
46754;DHT22;32500;50.620;3.400;2023-09-08T14:17:52;27.60;76.20
46754;DHT22;32500;50.620;3.400;2023-09-08T14:20:18;27.60;76.20
46754;DHT22;32500;50.620;3.400;2023-09-08T14:22:44;27.60;76.00
46754;DHT22;32500;50.620;3.400;2023-09-08T14:25:10;27.60;75.90
46754;DHT22;32500;50.620;3.400;2023-09-08T14:27:36;27.60;75.70
46754;DHT22;32500;50.620;3.400;2023-09-08T14:30:03;27.70;76.20
46754;DHT22;32500;50.620;3.400;2023-09-08T14:32:29;27.70;75.40
46754;DHT22;32500;50.620;3.400;2023-09-08T14:34:55;27.70;75.40
46754;DHT22;32500;50.620;3.400;2023-09-08T14:37:21;27.70;74.90
46754;DHT22;32500;50.620;3.400;2023-09-08T14:39:48;27.70;75.10
46754;DHT22;32500;50.620;3.400;2023-09-08T14:42:13;27.80;75.50
46754;DHT22;32500;50.620;3.400;2023-09-08T14:44:41;27.80;75.80
46754;DHT22;32500;50.620;3.400;2023-09-08T14:47:07;27.80;75.80
46754;DHT22;32500;50.620;3.400;2023-09-08T14:49:32;27.80;75.90
46754;DHT22;32500;50.620;3.400;2023-09-08T14:51:58;27.80;75.90
46754;DHT22;32500;50.620;3.400;2023-09-08T14:54:24;27.80;76.10
46754;DHT22;32500;50.620;3.400;2023-09-08T14:56:51;27.80;75.50
46754;DHT22;32500;50.620;3.400;2023-09-08T14:59:16;27.70;73.70
46754;DHT22;32500;50.620;3.400;2023-09-08T15:01:42;27.60;72.30
46754;DHT22;32500;50.620;3.400;2023-09-08T15:04:10;27.60;69.80
46754;DHT22;32500;50.620;3.400;2023-09-08T15:06:36;27.50;68.00
46754;DHT22;32500;50.620;3.400;2023-09-08T15:09:01;27.40;66.30
46754;DHT22;32500;50.620;3.400;2023-09-08T15:11:27;27.40;64.90
46754;DHT22;32500;50.620;3.400;2023-09-08T15:13:53;27.30;64.00
46754;DHT22;32500;50.620;3.400;2023-09-08T15:16:18;27.30;63.30
46754;DHT22;32500;50.620;3.400;2023-09-08T15:18:44;27.20;61.50
46754;DHT22;32500;50.620;3.400;2023-09-08T15:21:10;27.20;61.20
46754;DHT22;32500;50.620;3.400;2023-09-08T15:23:35;27.20;60.60
46754;DHT22;32500;50.620;3.400;2023-09-08T15:26:01;27.20;59.00
46754;DHT22;32500;50.620;3.400;2023-09-08T15:28:27;27.20;59.50
46754;DHT22;32500;50.620;3.400;2023-09-08T15:30:53;27.10;58.80